Pagrindinis puslapis
METAR-TAF:

METAR-TAF

Oro uostai :

Kampina Grandė, Paraiba, Brazilija

platuma: 07-13S, ilguma: 035-53W, Aukštis: 548 m

Dabartinis oras

Ataskaita buvo paskelbta 53 minutes, ne 21:00 UTC
Vėjas 13 kt iš Rytų
Temperatūra 26°C
Drėgmė 65%
Slėgis 1014 hPa
Matomumas 10 km arba daugiau
Mažai debesys ne aukštis 2500 ft

METAR: SBKG 152100Z 10013KT 9999 FEW025 26/19 Q1014

Laikas: 18:53 (21:53 UTC)

Prognozė

Ataskaita buvo paskelbta 5 valandos ir 53 minutes, ne 16:00 UTC
Prognozė galioja nuo 15 metu 18 UTC su 16 metu 06 UTC
Vėjas 15 kt iš Rytų/Pietryčių
Matomumas 10 km arba daugiau
Išsisklaidę debesys ne aukštis 4000 ft
Tapsmas
nuo 15 metu 20 UTC su 15 metu 22 UTC
Vėjas 8 kt iš Rytų
Matomumas 10 km arba daugiau
nėra debesų žemiau 1500 m ir nėra kamuolinių lietaus debesų
Tapsmas
nuo 16 metu 03 UTC su 16 metu 05 UTC
Vėjas 5 kt iš Rytų/Pietryčių
Išsisklaidę debesys ne aukštis 1500 ft

TAF: SBKG 151600Z 1518/1606 12015KT 9999 SCT040 TX32/1518Z TN21/1606Z BECMG 1520/1522 09008KT CAVOK BECMG 1603/1605 12005KT SCT015 RMK PEH

Orai ataskaitas ir orų prognozės (METAR, TAF).

turimą stotys yra geltonos ir raudonos taškus žemėlapyje.

Perkelti pele per norėdami pamatyti stoties vardą.

Tada spustelėkite, norėdami matyti oro stebėjimo ir prognozės.

Norėdami pakeisti žemėlapį: spustelėkite ant žalios mygtukų su juodo kryžiaus žemyn,; žalią mygtuką su brūkšneliu, jei norite nutolinti; arba žalių rodyklių gretimoms žemėlapius.


METAR-TAF: